Raw Spirit — CFN6361 — position and weather

sailwx.info

Track history (hours):
 
Tides and Currents Weather Stations Pressure Air Temp Water Temp Dewpoint Dewpoint Depression Visibility Wind Speed Wind Dir Waves Ship Positions

Raw Spirit

Last reported at 2017-Dec-17 04:00 UTC. Time now 2017-Dec-17 04:27 UTC.
Position N 49°14' W 124°49'.

Length 43 m; draft 5.8 m.

Type: Fishing. MMSI: 316023833.

Date/timePositionNaut miles runAvg speedWind from/ knotsBaromVisibWave heightAir tempDewpointWater temp
2017-Dec-17 04:00N 49°14' W 124°49'0 0.0
2017-Dec-17 03:30N 49°14' W 124°49'0 0.0
2017-Dec-17 03:00N 49°14' W 124°49'0 0.0
2017-Dec-17 02:30N 49°14' W 124°49'0 0.1
2017-Dec-17 02:00N 49°14' W 124°49'0 0.1
2017-Dec-17 01:30N 49°14' W 124°49'0 0.0
2017-Dec-17 01:00N 49°14' W 124°49'0 0.0
2017-Dec-17 00:30N 49°14' W 124°49'0 0.0
2017-Dec-17 00:00N 49°14' W 124°49'0 0.0
2017-Dec-16 23:30N 49°14' W 124°49'0 0.0
2017-Dec-16 23:00N 49°14' W 124°49'0 0.0
2017-Dec-16 22:30N 49°14' W 124°49'0 0.0
2017-Dec-16 22:00N 49°14' W 124°49'0 0.0
2017-Dec-16 21:30N 49°14' W 124°49'0 0.0
2017-Dec-16 21:00N 49°14' W 124°49'0 0.0
2017-Dec-16 20:30N 49°14' W 124°49'0 0.0
2017-Dec-16 20:00N 49°14' W 124°49'0 0.0
2017-Dec-16 19:30N 49°14' W 124°49'15 0.3
2017-Dec-14 18:11N 48°59' W 124°56'2 9.4
2017-Dec-14 17:57N 48°58' W 124°59'5 9.8
2017-Dec-14 17:28N 48°55' W 125°04'510.4
2017-Dec-14 17:00N 48°51' W 125°08'510.3
2017-Dec-14 16:30N 48°48' W 125°15'510.3
2017-Dec-14 16:01N 48°48' W 125°23'1110.6
2017-Dec-14 15:01N 48°51' W 125°38'510.9
2017-Dec-14 14:31N 48°54' W 125°45'510.8
2017-Dec-14 14:01N 48°57' W 125°52'510.4
2017-Dec-14 13:30N 48°60' W 125°59'510.9
2017-Dec-14 13:01N 49°02' W 126°06'510.6
2017-Dec-14 12:30N 49°06' W 126°12'510.3
2017-Dec-14 11:59N 49°09' W 126°18'510.4
2017-Dec-14 11:30N 49°12' W 126°25'510.4
2017-Dec-14 11:00N 49°15' W 126°32'510.7
2017-Dec-14 10:30N 49°18' W 126°38'510.6
2017-Dec-14 10:01N 49°21' W 126°45'510.0
2017-Dec-14 09:29N 49°25' W 126°50'510.0
2017-Dec-14 09:00N 49°28' W 126°56'510.0
2017-Dec-14 08:29N 49°32' W 127°01'510.0
2017-Dec-14 07:58N 49°35' W 127°07'89 9.7
2017-Dec-13 22:43N 50°36' W 128°49'210.7
2017-Dec-13 22:31N 50°38' W 128°52'610.9
2017-Dec-13 22:00N 50°41' W 128°58'611.2
2017-Dec-13 21:28N 50°46' W 129°05'511.0
2017-Dec-13 21:01N 50°49' W 129°11'510.6
2017-Dec-13 20:31N 50°52' W 129°17'610.2
2017-Dec-13 19:58N 50°56' W 129°24'79 1.5
2017-Dec-11 16:27N 51°55' W 130°49'4 9.1
2017-Dec-11 15:57N 51°59' W 130°51'4 8.9
2017-Dec-11 15:31N 52°03' W 130°53'4 7.9
2017-Dec-11 15:00N 52°07' W 130°56'1 2.9
2017-Dec-11 14:30N 52°06' W 130°58'0 0.0
2017-Dec-11 14:00N 52°06' W 130°58'0 0.0
2017-Dec-11 13:30N 52°06' W 130°58'0 0.0
2017-Dec-11 11:19N 52°06' W 130°58'0 0.1
2017-Dec-11 10:59N 52°06' W 130°58'0 0.0
2017-Dec-11 10:30N 52°06' W 130°58'0 0.0
2017-Dec-11 10:01N 52°06' W 130°58'0 0.0
2017-Dec-11 09:30N 52°06' W 130°58'0 0.0
2017-Dec-11 09:00N 52°06' W 130°58'0 0.0
2017-Dec-11 08:29N 52°06' W 130°58'0 0.0
2017-Dec-11 08:00N 52°06' W 130°58'  
2017-Dec-07 11:28N 51°41' W 130°44'1 1.9
2017-Dec-07 10:52N 51°42' W 130°45'1 2.1
2017-Dec-07 10:31N 51°42' W 130°45'1 2.2
2017-Dec-07 10:01N 51°44' W 130°45'1 2.2
2017-Dec-07 09:30N 51°45' W 130°45'1 2.3
2017-Dec-07 08:54N 51°46' W 130°45'1 2.1
2017-Dec-07 08:25N 51°46' W 130°46'1 2.4
2017-Dec-07 08:01N 51°45' W 130°47'1 2.1
2017-Dec-07 07:27N 51°44' W 130°48'1 1.7
2017-Dec-07 07:00N 51°43' W 130°49'1 2.9
2017-Dec-07 06:31N 51°42' W 130°51'1 2.6
2017-Dec-07 06:01N 51°41' W 130°51'2 3.8
2017-Dec-07 05:28N 51°41' W 130°48'1 3.2
2017-Dec-07 05:00N 51°41' W 130°46'2 2.5
2017-Dec-07 04:20N 51°40' W 130°43'  
Track history (hours):
 
Tides and Currents Weather Stations Pressure Air Temp Water Temp Dewpoint Dewpoint Depression Visibility Wind Speed Wind Dir Waves Ship Positions

Raw Spirit

Last reported at 2017-Dec-17 04:00 UTC. Time now 2017-Dec-17 04:27 UTC.
Position N 49°14' W 124°49'.

Length 43 m; draft 5.8 m.

Type: Fishing. MMSI: 316023833.

Date/timePositionNaut miles runAvg speedWind from/ knotsBaromVisibWave heightAir tempDewpointWater temp
2017-Dec-17 04:00N 49°14' W 124°49'0 0.0
2017-Dec-17 03:30N 49°14' W 124°49'0 0.0
2017-Dec-17 03:00N 49°14' W 124°49'0 0.0
2017-Dec-17 02:30N 49°14' W 124°49'0 0.1
2017-Dec-17 02:00N 49°14' W 124°49'0 0.1
2017-Dec-17 01:30N 49°14' W 124°49'0 0.0
2017-Dec-17 01:00N 49°14' W 124°49'0 0.0
2017-Dec-17 00:30N 49°14' W 124°49'0 0.0
2017-Dec-17 00:00N 49°14' W 124°49'0 0.0
2017-Dec-16 23:30N 49°14' W 124°49'0 0.0
2017-Dec-16 23:00N 49°14' W 124°49'0 0.0
2017-Dec-16 22:30N 49°14' W 124°49'0 0.0
2017-Dec-16 22:00N 49°14' W 124°49'0 0.0
2017-Dec-16 21:30N 49°14' W 124°49'0 0.0
2017-Dec-16 21:00N 49°14' W 124°49'0 0.0
2017-Dec-16 20:30N 49°14' W 124°49'0 0.0
2017-Dec-16 20:00N 49°14' W 124°49'0 0.0
2017-Dec-16 19:30N 49°14' W 124°49'15 0.3
2017-Dec-14 18:11N 48°59' W 124°56'2 9.4
2017-Dec-14 17:57N 48°58' W 124°59'5 9.8
2017-Dec-14 17:28N 48°55' W 125°04'510.4
2017-Dec-14 17:00N 48°51' W 125°08'510.3
2017-Dec-14 16:30N 48°48' W 125°15'510.3
2017-Dec-14 16:01N 48°48' W 125°23'1110.6
2017-Dec-14 15:01N 48°51' W 125°38'510.9
2017-Dec-14 14:31N 48°54' W 125°45'510.8
2017-Dec-14 14:01N 48°57' W 125°52'510.4
2017-Dec-14 13:30N 48°60' W 125°59'510.9
2017-Dec-14 13:01N 49°02' W 126°06'510.6
2017-Dec-14 12:30N 49°06' W 126°12'510.3
2017-Dec-14 11:59N 49°09' W 126°18'510.4
2017-Dec-14 11:30N 49°12' W 126°25'510.4
2017-Dec-14 11:00N 49°15' W 126°32'510.7
2017-Dec-14 10:30N 49°18' W 126°38'510.6
2017-Dec-14 10:01N 49°21' W 126°45'510.0
2017-Dec-14 09:29N 49°25' W 126°50'510.0
2017-Dec-14 09:00N 49°28' W 126°56'510.0
2017-Dec-14 08:29N 49°32' W 127°01'510.0
2017-Dec-14 07:58N 49°35' W 127°07'89 9.7
2017-Dec-13 22:43N 50°36' W 128°49'210.7
2017-Dec-13 22:31N 50°38' W 128°52'610.9
2017-Dec-13 22:00N 50°41' W 128°58'611.2
2017-Dec-13 21:28N 50°46' W 129°05'511.0
2017-Dec-13 21:01N 50°49' W 129°11'510.6
2017-Dec-13 20:31N 50°52' W 129°17'610.2
2017-Dec-13 19:58N 50°56' W 129°24'79 1.5
2017-Dec-11 16:27N 51°55' W 130°49'4 9.1
2017-Dec-11 15:57N 51°59' W 130°51'4 8.9
2017-Dec-11 15:31N 52°03' W 130°53'4 7.9
2017-Dec-11 15:00N 52°07' W 130°56'1 2.9
2017-Dec-11 14:30N 52°06' W 130°58'0 0.0
2017-Dec-11 14:00N 52°06' W 130°58'0 0.0
2017-Dec-11 13:30N 52°06' W 130°58'0 0.0
2017-Dec-11 11:19N 52°06' W 130°58'0 0.1
2017-Dec-11 10:59N 52°06' W 130°58'0 0.0
2017-Dec-11 10:30N 52°06' W 130°58'0 0.0
2017-Dec-11 10:01N 52°06' W 130°58'0 0.0
2017-Dec-11 09:30N 52°06' W 130°58'0 0.0
2017-Dec-11 09:00N 52°06' W 130°58'0 0.0
2017-Dec-11 08:29N 52°06' W 130°58'0 0.0
2017-Dec-11 08:00N 52°06' W 130°58'  
2017-Dec-07 11:28N 51°41' W 130°44'1 1.9
2017-Dec-07 10:52N 51°42' W 130°45'1 2.1
2017-Dec-07 10:31N 51°42' W 130°45'1 2.2
2017-Dec-07 10:01N 51°44' W 130°45'1 2.2
2017-Dec-07 09:30N 51°45' W 130°45'1 2.3
2017-Dec-07 08:54N 51°46' W 130°45'1 2.1
2017-Dec-07 08:25N 51°46' W 130°46'1 2.4
2017-Dec-07 08:01N 51°45' W 130°47'1 2.1
2017-Dec-07 07:27N 51°44' W 130°48'1 1.7
2017-Dec-07 07:00N 51°43' W 130°49'1 2.9
2017-Dec-07 06:31N 51°42' W 130°51'1 2.6
2017-Dec-07 06:01N 51°41' W 130°51'2 3.8
2017-Dec-07 05:28N 51°41' W 130°48'1 3.2
2017-Dec-07 05:00N 51°41' W 130°46'2 2.5
2017-Dec-07 04:20N 51°40' W 130°43'  

Dump ship's entire track history